sensor_id;sensor_type;location;lat;lon;timestamp;pressure;altitude;pressure_sealevel;temperature;humidity
48216;BME280;34005;48.844;10.098;2023-02-11T00:01:41;98616.63;;;0.37;62.68
48216;BME280;34005;48.844;10.098;2023-02-11T00:04:09;98618.66;;;0.31;62.15
48216;BME280;34005;48.844;10.098;2023-02-11T00:06:38;98617.16;;;0.25;61.13
48216;BME280;34005;48.844;10.098;2023-02-11T00:09:06;98616.66;;;0.17;60.71
48216;BME280;34005;48.844;10.098;2023-02-11T00:11:33;98606.66;;;0.11;61.60
48216;BME280;34005;48.844;10.098;2023-02-11T00:14:03;98609.44;;;0.06;63.38
48216;BME280;34005;48.844;10.098;2023-02-11T00:16:32;98621.59;;;0.03;62.96
48216;BME280;34005;48.844;10.098;2023-02-11T00:19:00;98622.09;;;-0.10;61.61
48216;BME280;34005;48.844;10.098;2023-02-11T00:21:28;98618.63;;;-0.29;61.40
48216;BME280;34005;48.844;10.098;2023-02-11T00:23:58;98626.78;;;-0.40;63.77
48216;BME280;34005;48.844;10.098;2023-02-11T00:26:29;98615.84;;;-0.44;62.62
48216;BME280;34005;48.844;10.098;2023-02-11T00:28:57;98615.69;;;-0.40;64.96
48216;BME280;34005;48.844;10.098;2023-02-11T00:31:26;98607.59;;;-0.31;63.94
48216;BME280;34005;48.844;10.098;2023-02-11T00:33:54;98606.94;;;-0.35;62.01
48216;BME280;34005;48.844;10.098;2023-02-11T00:36:25;98603.78;;;-0.42;61.87
48216;BME280;34005;48.844;10.098;2023-02-11T00:38:54;98595.31;;;-0.44;61.32
48216;BME280;34005;48.844;10.098;2023-02-11T00:41:23;98594.03;;;-0.54;61.02
48216;BME280;34005;48.844;10.098;2023-02-11T00:43:51;98591.06;;;-0.65;61.04
48216;BME280;34005;48.844;10.098;2023-02-11T00:46:19;98596.59;;;-0.74;61.37
48216;BME280;34005;48.844;10.098;2023-02-11T00:48:47;98590.91;;;-0.82;60.88
48216;BME280;34005;48.844;10.098;2023-02-11T00:51:17;98594.50;;;-0.87;61.30
48216;BME280;34005;48.844;10.098;2023-02-11T00:53:44;98586.22;;;-0.93;61.56
48216;BME280;34005;48.844;10.098;2023-02-11T00:56:12;98586.28;;;-0.95;61.65
48216;BME280;34005;48.844;10.098;2023-02-11T00:58:41;98578.50;;;-0.92;62.55
48216;BME280;34005;48.844;10.098;2023-02-11T01:01:08;98579.00;;;-0.84;62.21
48216;BME280;34005;48.844;10.098;2023-02-11T01:03:36;98577.97;;;-0.79;63.30
48216;BME280;34005;48.844;10.098;2023-02-11T01:06:04;98580.69;;;-0.82;62.27
48216;BME280;34005;48.844;10.098;2023-02-11T01:08:32;98573.22;;;-0.89;61.92
48216;BME280;34005;48.844;10.098;2023-02-11T01:11:02;98565.72;;;-0.93;61.81
48216;BME280;34005;48.844;10.098;2023-02-11T01:13:31;98560.03;;;-1.00;61.65
48216;BME280;34005;48.844;10.098;2023-02-11T01:16:00;98555.72;;;-0.99;62.66
48216;BME280;34005;48.844;10.098;2023-02-11T01:18:28;98552.34;;;-1.00;62.13
48216;BME280;34005;48.844;10.098;2023-02-11T01:20:56;98537.97;;;-1.04;61.88
48216;BME280;34005;48.844;10.098;2023-02-11T01:23:23;98536.44;;;-1.08;61.79
48216;BME280;34005;48.844;10.098;2023-02-11T01:25:51;98534.50;;;-1.03;63.03
48216;BME280;34005;48.844;10.098;2023-02-11T01:28:22;98521.78;;;-1.05;62.22
48216;BME280;34005;48.844;10.098;2023-02-11T01:30:50;98517.88;;;-1.13;62.07
48216;BME280;34005;48.844;10.098;2023-02-11T01:33:19;98513.75;;;-1.17;61.83
48216;BME280;34005;48.844;10.098;2023-02-11T01:35:47;98513.81;;;-1.19;61.94
48216;BME280;34005;48.844;10.098;2023-02-11T01:38:17;98511.19;;;-1.17;62.76
48216;BME280;34005;48.844;10.098;2023-02-11T01:40:48;98507.88;;;-1.19;62.74
48216;BME280;34005;48.844;10.098;2023-02-11T01:43:17;98505.31;;;-1.19;62.57
48216;BME280;34005;48.844;10.098;2023-02-11T01:46:12;98505.06;;;-1.13;65.69
48216;BME280;34005;48.844;10.098;2023-02-11T01:48:46;98516.84;;;-1.09;64.50
48216;BME280;34005;48.844;10.098;2023-02-11T01:51:17;98512.22;;;-1.01;64.03
48216;BME280;34005;48.844;10.098;2023-02-11T01:53:48;98519.66;;;-0.95;63.60
48216;BME280;34005;48.844;10.098;2023-02-11T01:56:36;98525.38;;;-0.88;63.34
48216;BME280;34005;48.844;10.098;2023-02-11T01:59:26;98529.22;;;-0.78;64.48
48216;BME280;34005;48.844;10.098;2023-02-11T02:01:57;98525.50;;;-0.71;63.69
48216;BME280;34005;48.844;10.098;2023-02-11T02:04:33;98525.47;;;-0.69;63.99
48216;BME280;34005;48.844;10.098;2023-02-11T02:07:06;98527.88;;;-0.66;66.08
48216;BME280;34005;48.844;10.098;2023-02-11T02:09:38;98532.19;;;-0.67;65.52
48216;BME280;34005;48.844;10.098;2023-02-11T02:12:06;98534.81;;;-0.68;64.26
48216;BME280;34005;48.844;10.098;2023-02-11T02:14:37;98532.38;;;-0.71;64.99
48216;BME280;34005;48.844;10.098;2023-02-11T02:17:05;98531.56;;;-0.72;64.13
48216;BME280;34005;48.844;10.098;2023-02-11T02:23:09;98522.13;;;-0.71;66.55
48216;BME280;34005;48.844;10.098;2023-02-11T02:26:09;98512.94;;;-0.77;65.34
48216;BME280;34005;48.844;10.098;2023-02-11T02:28:57;98520.78;;;-0.80;65.31
48216;BME280;34005;48.844;10.098;2023-02-11T02:31:44;98512.25;;;-0.80;63.82
48216;BME280;34005;48.844;10.098;2023-02-11T02:34:27;98497.56;;;-0.77;66.23
48216;BME280;34005;48.844;10.098;2023-02-11T02:37:01;98493.09;;;-0.72;67.17
48216;BME280;34005;48.844;10.098;2023-02-11T02:39:32;98497.97;;;-0.66;67.50
48216;BME280;34005;48.844;10.098;2023-02-11T02:42:03;98498.59;;;-0.60;65.44
48216;BME280;34005;48.844;10.098;2023-02-11T02:44:31;98492.13;;;-0.69;64.44
48216;BME280;34005;48.844;10.098;2023-02-11T02:46:59;98481.88;;;-0.69;65.32
48216;BME280;34005;48.844;10.098;2023-02-11T02:49:29;98476.63;;;-0.66;64.00
48216;BME280;34005;48.844;10.098;2023-02-11T02:52:03;98470.09;;;-0.73;63.35
48216;BME280;34005;48.844;10.098;2023-02-11T02:54:52;98472.66;;;-0.73;63.57
48216;BME280;34005;48.844;10.098;2023-02-11T02:57:30;98469.47;;;-0.78;62.92
48216;BME280;34005;48.844;10.098;2023-02-11T03:00:09;98472.41;;;-0.88;62.65
48216;BME280;34005;48.844;10.098;2023-02-11T03:02:50;98474.19;;;-0.90;63.14
48216;BME280;34005;48.844;10.098;2023-02-11T03:05:28;98463.19;;;-0.92;62.89
48216;BME280;34005;48.844;10.098;2023-02-11T03:07:59;98473.44;;;-0.92;63.40
48216;BME280;34005;48.844;10.098;2023-02-11T03:10:33;98469.78;;;-0.86;64.00
48216;BME280;34005;48.844;10.098;2023-02-11T03:13:03;98459.34;;;-0.81;63.08
48216;BME280;34005;48.844;10.098;2023-02-11T03:15:37;98462.88;;;-0.84;62.72
48216;BME280;34005;48.844;10.098;2023-02-11T03:18:08;98458.66;;;-0.85;62.88
48216;BME280;34005;48.844;10.098;2023-02-11T03:20:41;98458.72;;;-0.87;62.58
48216;BME280;34005;48.844;10.098;2023-02-11T03:23:11;98463.84;;;-0.87;62.97
48216;BME280;34005;48.844;10.098;2023-02-11T03:25:45;98461.13;;;-0.84;63.06
48216;BME280;34005;48.844;10.098;2023-02-11T03:28:18;98461.78;;;-0.78;64.61
48216;BME280;34005;48.844;10.098;2023-02-11T03:30:55;98464.84;;;-0.70;63.41
48216;BME280;34005;48.844;10.098;2023-02-11T03:33:24;98462.00;;;-0.64;62.90
48216;BME280;34005;48.844;10.098;2023-02-11T03:35:57;98469.69;;;-0.64;62.44
48216;BME280;34005;48.844;10.098;2023-02-11T03:38:27;98481.50;;;-0.60;64.13
48216;BME280;34005;48.844;10.098;2023-02-11T03:40:57;98489.13;;;-0.58;64.63
48216;BME280;34005;48.844;10.098;2023-02-11T03:43:30;98493.84;;;-0.49;67.28
48216;BME280;34005;48.844;10.098;2023-02-11T03:46:00;98480.97;;;-0.48;64.92
48216;BME280;34005;48.844;10.098;2023-02-11T03:48:31;98488.56;;;-0.46;66.99
48216;BME280;34005;48.844;10.098;2023-02-11T03:51:02;98484.88;;;-0.39;67.56
48216;BME280;34005;48.844;10.098;2023-02-11T03:53:30;98488.88;;;-0.33;66.57
48216;BME280;34005;48.844;10.098;2023-02-11T03:56:01;98493.75;;;-0.27;65.81
48216;BME280;34005;48.844;10.098;2023-02-11T03:58:30;98489.59;;;-0.30;64.88
48216;BME280;34005;48.844;10.098;2023-02-11T04:00:57;98498.38;;;-0.35;64.33
48216;BME280;34005;48.844;10.098;2023-02-11T04:03:27;98503.84;;;-0.43;64.29
48216;BME280;34005;48.844;10.098;2023-02-11T04:05:56;98502.16;;;-0.44;64.09
48216;BME280;34005;48.844;10.098;2023-02-11T04:08:28;98499.69;;;-0.46;63.44
48216;BME280;34005;48.844;10.098;2023-02-11T04:10:57;98497.19;;;-0.47;64.22
48216;BME280;34005;48.844;10.098;2023-02-11T04:13:25;98480.13;;;-0.48;64.00
48216;BME280;34005;48.844;10.098;2023-02-11T04:15:53;98478.47;;;-0.49;65.49
48216;BME280;34005;48.844;10.098;2023-02-11T04:18:21;98489.56;;;-0.49;64.90
48216;BME280;34005;48.844;10.098;2023-02-11T04:20:49;98493.03;;;-0.50;65.64
48216;BME280;34005;48.844;10.098;2023-02-11T04:23:16;98485.25;;;-0.48;64.74
48216;BME280;34005;48.844;10.098;2023-02-11T04:25:45;98480.78;;;-0.43;66.25
48216;BME280;34005;48.844;10.098;2023-02-11T04:28:13;98476.97;;;-0.34;65.25
48216;BME280;34005;48.844;10.098;2023-02-11T04:30:41;98480.31;;;-0.32;64.21
48216;BME280;34005;48.844;10.098;2023-02-11T04:33:08;98481.94;;;-0.31;63.61
48216;BME280;34005;48.844;10.098;2023-02-11T04:35:36;98480.16;;;-0.29;63.53
48216;BME280;34005;48.844;10.098;2023-02-11T04:38:03;98487.03;;;-0.30;63.33
48216;BME280;34005;48.844;10.098;2023-02-11T04:40:31;98481.91;;;-0.30;63.13
48216;BME280;34005;48.844;10.098;2023-02-11T04:43:00;98479.06;;;-0.24;64.29
48216;BME280;34005;48.844;10.098;2023-02-11T04:45:27;98477.06;;;-0.17;65.58
48216;BME280;34005;48.844;10.098;2023-02-11T04:47:55;98463.81;;;-0.08;65.91
48216;BME280;34005;48.844;10.098;2023-02-11T04:50:22;98471.34;;;-0.05;64.88
48216;BME280;34005;48.844;10.098;2023-02-11T04:52:50;98461.81;;;-0.01;64.62
48216;BME280;34005;48.844;10.098;2023-02-11T04:55:17;98459.19;;;0.01;65.76
48216;BME280;34005;48.844;10.098;2023-02-11T04:57:45;98469.28;;;0.04;64.90
48216;BME280;34005;48.844;10.098;2023-02-11T05:00:15;98469.16;;;0.07;63.39
48216;BME280;34005;48.844;10.098;2023-02-11T05:02:43;98464.75;;;0.09;63.37
48216;BME280;34005;48.844;10.098;2023-02-11T05:05:10;98466.38;;;0.11;62.98
48216;BME280;34005;48.844;10.098;2023-02-11T05:07:38;98461.84;;;0.16;63.61
48216;BME280;34005;48.844;10.098;2023-02-11T05:10:05;98461.59;;;0.23;64.45
48216;BME280;34005;48.844;10.098;2023-02-11T05:12:33;98457.00;;;0.29;64.38
48216;BME280;34005;48.844;10.098;2023-02-11T05:15:00;98447.44;;;0.33;63.97
48216;BME280;34005;48.844;10.098;2023-02-11T05:17:29;98436.31;;;0.32;63.49
48216;BME280;34005;48.844;10.098;2023-02-11T05:19:57;98441.31;;;0.35;63.89
48216;BME280;34005;48.844;10.098;2023-02-11T05:22:24;98431.94;;;0.34;63.29
48216;BME280;34005;48.844;10.098;2023-02-11T05:24:52;98427.84;;;0.30;64.78
48216;BME280;34005;48.844;10.098;2023-02-11T05:27:19;98437.06;;;0.34;65.03
48216;BME280;34005;48.844;10.098;2023-02-11T05:29:47;98438.03;;;0.32;63.91
48216;BME280;34005;48.844;10.098;2023-02-11T05:32:14;98432.22;;;0.28;63.63
48216;BME280;34005;48.844;10.098;2023-02-11T05:34:43;98444.22;;;0.28;64.87
48216;BME280;34005;48.844;10.098;2023-02-11T05:37:11;98444.00;;;0.32;64.32
48216;BME280;34005;48.844;10.098;2023-02-11T05:39:38;98431.81;;;0.37;64.50
48216;BME280;34005;48.844;10.098;2023-02-11T05:42:06;98437.53;;;0.43;65.80
48216;BME280;34005;48.844;10.098;2023-02-11T05:44:34;98438.13;;;0.48;64.89
48216;BME280;34005;48.844;10.098;2023-02-11T05:47:01;98434.75;;;0.47;65.56
48216;BME280;34005;48.844;10.098;2023-02-11T05:49:29;98428.78;;;0.47;64.67
48216;BME280;34005;48.844;10.098;2023-02-11T05:51:58;98426.97;;;0.49;66.15
48216;BME280;34005;48.844;10.098;2023-02-11T05:54:26;98420.03;;;0.51;66.62
48216;BME280;34005;48.844;10.098;2023-02-11T05:56:53;98419.00;;;0.55;65.50
48216;BME280;34005;48.844;10.098;2023-02-11T05:59:21;98421.56;;;0.55;64.82
48216;BME280;34005;48.844;10.098;2023-02-11T06:01:48;98416.25;;;0.58;66.02
48216;BME280;34005;48.844;10.098;2023-02-11T06:04:16;98413.69;;;0.58;65.40
48216;BME280;34005;48.844;10.098;2023-02-11T06:06:43;98413.91;;;0.53;65.03
48216;BME280;34005;48.844;10.098;2023-02-11T06:09:12;98416.41;;;0.55;65.70
48216;BME280;34005;48.844;10.098;2023-02-11T06:11:40;98440.28;;;0.57;65.25
48216;BME280;34005;48.844;10.098;2023-02-11T06:14:07;98435.88;;;0.59;65.61
48216;BME280;34005;48.844;10.098;2023-02-11T06:16:35;98436.50;;;0.64;66.95
48216;BME280;34005;48.844;10.098;2023-02-11T06:19:02;98428.66;;;0.67;67.43
48216;BME280;34005;48.844;10.098;2023-02-11T06:21:30;98446.41;;;0.72;66.75
48216;BME280;34005;48.844;10.098;2023-02-11T06:24:09;98446.34;;;0.73;65.47
48216;BME280;34005;48.844;10.098;2023-02-11T06:26:38;98432.91;;;0.68;64.78
48216;BME280;34005;48.844;10.098;2023-02-11T06:29:05;98436.28;;;0.69;64.54
48216;BME280;34005;48.844;10.098;2023-02-11T06:31:33;98439.53;;;0.72;65.90
48216;BME280;34005;48.844;10.098;2023-02-11T06:34:00;98442.84;;;0.74;65.02
48216;BME280;34005;48.844;10.098;2023-02-11T06:36:28;98427.75;;;0.68;64.76
48216;BME280;34005;48.844;10.098;2023-02-11T06:38:55;98442.19;;;0.71;65.03
48216;BME280;34005;48.844;10.098;2023-02-11T06:41:23;98444.34;;;0.78;66.16
48216;BME280;34005;48.844;10.098;2023-02-11T06:43:52;98444.88;;;0.85;66.30
48216;BME280;34005;48.844;10.098;2023-02-11T06:46:20;98442.03;;;0.91;67.31
48216;BME280;34005;48.844;10.098;2023-02-11T06:48:47;98447.03;;;0.94;66.81
48216;BME280;34005;48.844;10.098;2023-02-11T06:51:15;98448.75;;;0.94;66.31
48216;BME280;34005;48.844;10.098;2023-02-11T06:53:45;98435.13;;;0.92;65.73
48216;BME280;34005;48.844;10.098;2023-02-11T06:56:15;98431.84;;;0.90;66.58
48216;BME280;34005;48.844;10.098;2023-02-11T06:58:44;98434.47;;;0.88;66.64
48216;BME280;34005;48.844;10.098;2023-02-11T07:01:14;98443.00;;;0.89;67.50
48216;BME280;34005;48.844;10.098;2023-02-11T07:03:43;98432.66;;;0.90;66.52
48216;BME280;34005;48.844;10.098;2023-02-11T07:06:13;98438.69;;;0.89;65.37
48216;BME280;34005;48.844;10.098;2023-02-11T07:08:41;98438.78;;;0.88;65.65
48216;BME280;34005;48.844;10.098;2023-02-11T07:11:12;98440.28;;;0.92;65.98
48216;BME280;34005;48.844;10.098;2023-02-11T07:13:40;98437.50;;;0.96;66.50
48216;BME280;34005;48.844;10.098;2023-02-11T07:16:10;98442.31;;;1.02;67.66
48216;BME280;34005;48.844;10.098;2023-02-11T07:18:40;98445.34;;;1.11;66.50
48216;BME280;34005;48.844;10.098;2023-02-11T07:21:10;98441.53;;;1.18;67.00
48216;BME280;34005;48.844;10.098;2023-02-11T07:23:38;98431.94;;;1.21;66.90
48216;BME280;34005;48.844;10.098;2023-02-11T07:26:08;98436.78;;;1.28;65.95
48216;BME280;34005;48.844;10.098;2023-02-11T07:28:36;98435.72;;;1.32;66.29
48216;BME280;34005;48.844;10.098;2023-02-11T07:31:05;98436.38;;;1.35;65.85
48216;BME280;34005;48.844;10.098;2023-02-11T07:33:33;98438.06;;;1.36;65.00
48216;BME280;34005;48.844;10.098;2023-02-11T07:36:04;98443.19;;;1.36;64.34
48216;BME280;34005;48.844;10.098;2023-02-11T07:38:33;98443.94;;;1.38;64.96
48216;BME280;34005;48.844;10.098;2023-02-11T07:41:03;98438.63;;;1.41;64.47
48216;BME280;34005;48.844;10.098;2023-02-11T07:43:32;98442.13;;;1.40;64.42
48216;BME280;34005;48.844;10.098;2023-02-11T07:46:02;98442.78;;;1.44;65.68
48216;BME280;34005;48.844;10.098;2023-02-11T07:48:30;98446.78;;;1.50;66.41
48216;BME280;34005;48.844;10.098;2023-02-11T07:51:06;98435.44;;;1.54;68.67
48216;BME280;34005;48.844;10.098;2023-02-11T07:53:34;98442.16;;;1.56;66.35
48216;BME280;34005;48.844;10.098;2023-02-11T07:56:02;98433.50;;;1.57;65.94
48216;BME280;34005;48.844;10.098;2023-02-11T07:58:31;98431.56;;;1.62;66.61
48216;BME280;34005;48.844;10.098;2023-02-11T08:01:03;98444.84;;;1.71;66.13
48216;BME280;34005;48.844;10.098;2023-02-11T08:03:32;98452.97;;;1.79;65.05
48216;BME280;34005;48.844;10.098;2023-02-11T08:06:02;98445.25;;;1.79;64.07
48216;BME280;34005;48.844;10.098;2023-02-11T08:08:31;98450.56;;;1.76;63.52
48216;BME280;34005;48.844;10.098;2023-02-11T08:11:05;98451.47;;;1.75;63.32
48216;BME280;34005;48.844;10.098;2023-02-11T08:13:32;98451.31;;;1.78;63.39
48216;BME280;34005;48.844;10.098;2023-02-11T08:16:00;98457.97;;;1.82;63.36
48216;BME280;34005;48.844;10.098;2023-02-11T08:18:28;98455.16;;;1.87;63.40
48216;BME280;34005;48.844;10.098;2023-02-11T08:20:56;98453.97;;;1.92;63.99
48216;BME280;34005;48.844;10.098;2023-02-11T08:23:23;98451.91;;;1.99;64.00
48216;BME280;34005;48.844;10.098;2023-02-11T08:25:52;98460.88;;;2.08;64.85
48216;BME280;34005;48.844;10.098;2023-02-11T08:28:20;98456.97;;;2.16;63.44
48216;BME280;34005;48.844;10.098;2023-02-11T08:30:47;98448.03;;;2.23;62.98
48216;BME280;34005;48.844;10.098;2023-02-11T08:33:15;98450.75;;;2.36;62.59
48216;BME280;34005;48.844;10.098;2023-02-11T08:35:43;98451.16;;;2.44;62.72
48216;BME280;34005;48.844;10.098;2023-02-11T08:38:10;98452.38;;;2.53;61.92
48216;BME280;34005;48.844;10.098;2023-02-11T08:40:38;98457.13;;;2.61;61.47
48216;BME280;34005;48.844;10.098;2023-02-11T08:43:07;98460.00;;;2.71;61.24
48216;BME280;34005;48.844;10.098;2023-02-11T08:45:34;98461.56;;;2.73;61.48
48216;BME280;34005;48.844;10.098;2023-02-11T08:48:03;98461.41;;;2.76;62.20
48216;BME280;34005;48.844;10.098;2023-02-11T08:50:31;98461.88;;;2.83;63.59
48216;BME280;34005;48.844;10.098;2023-02-11T08:52:58;98451.97;;;2.91;62.76
48216;BME280;34005;48.844;10.098;2023-02-11T08:55:26;98435.88;;;3.02;62.18
48216;BME280;34005;48.844;10.098;2023-02-11T08:57:53;98427.34;;;3.16;63.27
48216;BME280;34005;48.844;10.098;2023-02-11T09:00:23;98428.72;;;3.21;62.05
48216;BME280;34005;48.844;10.098;2023-02-11T09:02:51;98428.53;;;3.24;61.57
48216;BME280;34005;48.844;10.098;2023-02-11T09:05:18;98435.06;;;3.30;61.89
48216;BME280;34005;48.844;10.098;2023-02-11T09:07:47;98433.97;;;3.34;61.10
48216;BME280;34005;48.844;10.098;2023-02-11T09:10:15;98435.19;;;3.43;62.03
48216;BME280;34005;48.844;10.098;2023-02-11T09:12:42;98426.78;;;3.54;61.38
48216;BME280;34005;48.844;10.098;2023-02-11T09:15:10;98415.47;;;3.70;62.08
48216;BME280;34005;48.844;10.098;2023-02-11T09:17:38;98421.31;;;4.01;60.86
48216;BME280;34005;48.844;10.098;2023-02-11T09:20:07;98418.38;;;4.47;60.52
48216;BME280;34005;48.844;10.098;2023-02-11T09:22:36;98422.13;;;4.83;59.42
48216;BME280;34005;48.844;10.098;2023-02-11T09:25:04;98416.03;;;4.97;58.78
48216;BME280;34005;48.844;10.098;2023-02-11T09:27:32;98417.66;;;4.98;57.85
48216;BME280;34005;48.844;10.098;2023-02-11T09:29:59;98417.06;;;4.94;57.93
48216;BME280;34005;48.844;10.098;2023-02-11T09:32:27;98417.97;;;4.93;58.76
48216;BME280;34005;48.844;10.098;2023-02-11T09:34:56;98422.41;;;4.91;58.32
48216;BME280;34005;48.844;10.098;2023-02-11T09:37:23;98416.72;;;4.86;59.21
48216;BME280;34005;48.844;10.098;2023-02-11T09:39:51;98410.00;;;4.84;60.04
48216;BME280;34005;48.844;10.098;2023-02-11T09:42:39;98423.03;;;4.82;59.18
48216;BME280;34005;48.844;10.098;2023-02-11T09:45:12;98431.91;;;4.78;61.12
48216;BME280;34005;48.844;10.098;2023-02-11T09:47:46;98424.38;;;4.75;60.16
48216;BME280;34005;48.844;10.098;2023-02-11T09:50:21;98426.94;;;4.75;59.91
48216;BME280;34005;48.844;10.098;2023-02-11T09:52:53;98430.06;;;4.80;59.76
48216;BME280;34005;48.844;10.098;2023-02-11T09:55:26;98432.75;;;4.91;60.47
48216;BME280;34005;48.844;10.098;2023-02-11T09:57:54;98438.59;;;5.08;59.73
48216;BME280;34005;48.844;10.098;2023-02-11T10:00:26;98444.38;;;5.24;57.92
48216;BME280;34005;48.844;10.098;2023-02-11T10:03:12;98438.41;;;5.36;57.54
48216;BME280;34005;48.844;10.098;2023-02-11T10:06:04;98442.22;;;5.44;56.88
48216;BME280;34005;48.844;10.098;2023-02-11T10:08:40;98452.25;;;5.48;56.84
48216;BME280;34005;48.844;10.098;2023-02-11T10:11:20;98460.56;;;5.53;56.20
48216;BME280;34005;48.844;10.098;2023-02-11T10:14:05;98447.72;;;5.52;57.48
48216;BME280;34005;48.844;10.098;2023-02-11T10:16:47;98465.91;;;5.63;56.36
48216;BME280;34005;48.844;10.098;2023-02-11T10:19:24;98463.56;;;5.73;58.31
48216;BME280;34005;48.844;10.098;2023-02-11T10:22:06;98460.63;;;5.77;56.43
48216;BME280;34005;48.844;10.098;2023-02-11T10:24:36;98467.47;;;5.78;57.68
48216;BME280;34005;48.844;10.098;2023-02-11T10:27:13;98465.91;;;5.89;58.65
48216;BME280;34005;48.844;10.098;2023-02-11T10:29:45;98458.63;;;6.07;58.02
48216;BME280;34005;48.844;10.098;2023-02-11T10:32:26;98446.66;;;6.30;55.45
48216;BME280;34005;48.844;10.098;2023-02-11T10:35:02;98446.56;;;6.67;58.01
48216;BME280;34005;48.844;10.098;2023-02-11T10:37:31;98445.41;;;7.06;56.19
48216;BME280;34005;48.844;10.098;2023-02-11T10:39:58;98444.44;;;7.42;54.12
48216;BME280;34005;48.844;10.098;2023-02-11T10:42:27;98436.31;;;7.81;53.77
48216;BME280;34005;48.844;10.098;2023-02-11T10:44:58;98436.47;;;8.23;52.27
48216;BME280;34005;48.844;10.098;2023-02-11T10:47:29;98434.66;;;8.57;51.11
48216;BME280;34005;48.844;10.098;2023-02-11T10:49:59;98433.09;;;8.87;50.85
48216;BME280;34005;48.844;10.098;2023-02-11T10:52:30;98426.75;;;9.22;51.50
48216;BME280;34005;48.844;10.098;2023-02-11T10:55:01;98438.63;;;9.66;50.96
48216;BME280;34005;48.844;10.098;2023-02-11T10:57:35;98424.31;;;10.01;48.37
48216;BME280;34005;48.844;10.098;2023-02-11T11:00:18;98420.59;;;10.35;49.53
48216;BME280;34005;48.844;10.098;2023-02-11T11:02:53;98420.47;;;10.65;47.91
48216;BME280;34005;48.844;10.098;2023-02-11T11:05:27;98432.13;;;10.90;47.95
48216;BME280;34005;48.844;10.098;2023-02-11T11:07:58;98417.00;;;11.13;45.72
48216;BME280;34005;48.844;10.098;2023-02-11T11:10:29;98423.81;;;11.34;44.74
48216;BME280;34005;48.844;10.098;2023-02-11T11:12:57;98422.41;;;11.49;46.82
48216;BME280;34005;48.844;10.098;2023-02-11T11:15:26;98406.66;;;11.69;45.28
48216;BME280;34005;48.844;10.098;2023-02-11T11:18:14;98408.22;;;11.89;46.23
48216;BME280;34005;48.844;10.098;2023-02-11T11:20:54;98405.09;;;12.13;43.58
48216;BME280;34005;48.844;10.098;2023-02-11T11:23:25;98416.69;;;12.47;43.92
48216;BME280;34005;48.844;10.098;2023-02-11T11:26:00;98401.34;;;12.70;44.30
48216;BME280;34005;48.844;10.098;2023-02-11T11:28:35;98408.56;;;12.94;41.34
48216;BME280;34005;48.844;10.098;2023-02-11T11:31:11;98409.28;;;13.22;41.70
48216;BME280;34005;48.844;10.098;2023-02-11T11:33:41;98397.94;;;13.39;41.64
48216;BME280;34005;48.844;10.098;2023-02-11T11:36:11;98389.91;;;13.67;41.96
48216;BME280;34005;48.844;10.098;2023-02-11T11:38:45;98398.84;;;13.99;40.44
48216;BME280;34005;48.844;10.098;2023-02-11T11:41:21;98400.72;;;14.23;40.56
48216;BME280;34005;48.844;10.098;2023-02-11T11:44:01;98388.47;;;14.48;39.22
48216;BME280;34005;48.844;10.098;2023-02-11T11:46:32;98387.03;;;14.70;41.08
48216;BME280;34005;48.844;10.098;2023-02-11T11:49:12;98377.66;;;14.92;39.30
48216;BME280;34005;48.844;10.098;2023-02-11T11:51:43;98386.97;;;15.19;40.55
48216;BME280;34005;48.844;10.098;2023-02-11T11:54:14;98387.94;;;15.43;39.03
48216;BME280;34005;48.844;10.098;2023-02-11T11:56:49;98392.78;;;15.62;38.64
48216;BME280;34005;48.844;10.098;2023-02-11T11:59:20;98397.34;;;15.85;38.19
48216;BME280;34005;48.844;10.098;2023-02-11T12:02:04;98383.19;;;15.94;38.31
48216;BME280;34005;48.844;10.098;2023-02-11T12:04:52;98396.91;;;16.04;36.70
48216;BME280;34005;48.844;10.098;2023-02-11T12:07:33;98387.94;;;16.22;37.01
48216;BME280;34005;48.844;10.098;2023-02-11T12:13:08;98399.59;;;16.51;35.37
48216;BME280;34005;48.844;10.098;2023-02-11T12:15:43;98397.69;;;16.67;34.61
48216;BME280;34005;48.844;10.098;2023-02-11T12:18:21;98398.00;;;16.73;34.53
48216;BME280;34005;48.844;10.098;2023-02-11T12:21:19;98404.59;;;16.68;35.57
48216;BME280;34005;48.844;10.098;2023-02-11T12:24:01;98394.28;;;16.59;35.13
48216;BME280;34005;48.844;10.098;2023-02-11T12:26:39;98385.06;;;16.40;36.57
48216;BME280;34005;48.844;10.098;2023-02-11T12:29:22;98386.47;;;16.19;36.90
48216;BME280;34005;48.844;10.098;2023-02-11T12:32:01;98384.09;;;16.10;37.36
48216;BME280;34005;48.844;10.098;2023-02-11T12:34:52;98381.88;;;15.90;36.45
48216;BME280;34005;48.844;10.098;2023-02-11T12:37:31;98379.31;;;15.65;36.22
48216;BME280;34005;48.844;10.098;2023-02-11T12:40:14;98371.50;;;15.41;37.95
48216;BME280;34005;48.844;10.098;2023-02-11T12:42:52;98363.31;;;15.28;37.60
48216;BME280;34005;48.844;10.098;2023-02-11T12:49:18;98354.88;;;14.76;37.84
48216;BME280;34005;48.844;10.098;2023-02-11T12:52:01;98360.72;;;14.54;39.46
48216;BME280;34005;48.844;10.098;2023-02-11T12:54:37;98365.50;;;14.42;39.00
48216;BME280;34005;48.844;10.098;2023-02-11T12:57:12;98366.44;;;14.25;38.93
48216;BME280;34005;48.844;10.098;2023-02-11T12:59:49;98369.72;;;14.10;40.51
48216;BME280;34005;48.844;10.098;2023-02-11T13:02:28;98366.84;;;13.87;41.13
48216;BME280;34005;48.844;10.098;2023-02-11T13:05:03;98356.44;;;13.61;41.12
48216;BME280;34005;48.844;10.098;2023-02-11T13:07:35;98346.03;;;13.43;41.74
48216;BME280;34005;48.844;10.098;2023-02-11T13:10:20;98352.81;;;13.28;42.49
48216;BME280;34005;48.844;10.098;2023-02-11T13:12:49;98355.66;;;13.08;41.78
48216;BME280;34005;48.844;10.098;2023-02-11T13:15:36;98350.59;;;12.89;42.28
48216;BME280;34005;48.844;10.098;2023-02-11T13:23:25;98342.75;;;12.45;43.89
48216;BME280;34005;48.844;10.098;2023-02-11T13:26:07;98341.09;;;12.26;43.30
48216;BME280;34005;48.844;10.098;2023-02-11T13:28:44;98336.31;;;12.03;43.29
48216;BME280;34005;48.844;10.098;2023-02-11T13:31:15;98340.22;;;11.89;43.88
48216;BME280;34005;48.844;10.098;2023-02-11T13:33:45;98338.88;;;11.85;44.77